This is the latest recevied weather packets stored in our database for station/object W4HIX-2. If no packets are shown the sender has not sent any weather packets the latest 10 day(s).
| Time | Temp. | Humidity | Pressure | Rain* | Wind** | Luminosity | Snow |
|---|---|---|---|---|---|---|---|
| 1777857956 | 23.33° C | 75% | 1015.8 hPa | 0 mm | - | - | - |
| 1777856715 | 23.89° C | 74% | 1015.5 hPa | 0 mm | - | - | - |
| 1777856115 | 23.89° C | 73% | 1015.5 hPa | 0 mm | - | - | - |
| 1777855556 | 23.89° C | 73% | 1015.4 hPa | 0 mm | - | - | - |
| 1777851915 | 25° C | 68% | 1015 hPa | 0 mm | - | - | - |
| 1777850715 | 25.56° C | 67% | 1014.9 hPa | 0 mm | - | - | - |
| 1777846515 | 26.11° C | 64% | 1014.6 hPa | 0 mm | - | - | - |
| 1777844115 | 26.11° C | 63% | 1014.9 hPa | 0 mm | - | - | - |
| 1777841715 | 26.11° C | 65% | 1015 hPa | 0 mm | - | - | - |
| 1777841115 | 26.11° C | 66% | 1015.1 hPa | 0 mm | - | - | - |
| 1777833315 | 25° C | 70% | 1017 hPa | 0 mm | - | - | - |
| 1777826717 | 22.22° C | 77% | 1018 hPa | 0 mm | - | - | - |
| 1777818917 | 20.56° C | 79% | 1017.7 hPa | 0 mm | - | - | - |
| 1777812937 | 18.89° C | 87% | 1016.9 hPa | 0 mm | - | - | - |
| 1777811716 | 18.89° C | 89% | 1016.6 hPa | 0 mm | - | - | - |
| 1777810516 | 18.89° C | 89% | 1016.2 hPa | 0 mm | - | - | - |
| 1777808116 | 18.89° C | 90% | 1015.7 hPa | 0 mm | - | - | - |
| 1777805136 | 19.44° C | 91% | 1015.2 hPa | 0 mm | - | - | - |
| 1777803316 | 19.44° C | 92% | 1014.7 hPa | 0 mm | - | - | - |
| 1777791916 | 21.11° C | 95% | 1013.6 hPa | 0 mm | - | - | - |
| 1777777536 | 23.33° C | 89% | 1013 hPa | 0 mm | - | - | - |
| 1777776916 | 23.33° C | 90% | 1012.9 hPa | 0 mm | - | - | - |
| 1777776315 | 23.33° C | 90% | 1013.1 hPa | 0 mm | - | - | - |
| 1777775715 | 23.33° C | 89% | 1012.8 hPa | 0 mm | - | - | - |
| 1777775115 | 23.33° C | 89% | 1012.8 hPa | 0 mm | - | - | - |
* Rain latest hour (hover to see other rain measurements)
** Current wind speed in m/s (hover to see current wind gust speed)